Terminal Aerodrome Forecast
Issued by NWS

Home | Current Version | Previous Version | Text Only | Print | Product List | Glossary Off
Versions: 1 2 3 4 5 6 7 8 9 10 11 12 13 14 15 16 17 18 19 20

000
FTUS43 KICT 061120
TAFSLN
TAF
KSLN 061120Z 0612/0712 19012KT P6SM BKN200
     FM061700 25012KT P6SM VCTS BKN050CB
     FM062000 35013G24KT P6SM VCTS BKN050CB
      TEMPO 0620/0624 VRB20G35KT 3SM +TSRA OVC035CB
     FM070100 01013KT P6SM VCTS BKN070CB OVC120=

USA.gov is the U.S. government's official web portal to all federal, state and local government web resources and services.